Latest Weather Observations for Hindmarsh Island

IDS60901

Issued at 6:01 am CST Thursday 16 August 2018 (issued every 10 minutes, with the page automatically refreshed every 10 minutes)

About weather observations | Map of Adelaide area stations | Latest observations for Adelaide area | Other Formats
Station Details ID: 023894 Name: HINDMARSH ISLAND AWS Lat: -35.52 Lon: 138.82 Height: 11.0 m
Data from the previous 72 hours. | See also: Recent months at Hindmarsh Island
Date/Time
CST
Temp
°C
App
Temp
°C
Dew
Point
°C
Rel
Hum
%
Delta-T
°C
Wind Press
QNH
hPa
Press
MSL
hPa
Rain since
9am
mm
Dir  Spd
km/h
Gust
km/h
Spd
kts
Gust
kts
16/06:00am 9.1 5.4 4.7 74 2.0 WNW 13 19 7 10 1015.3 1015.3 0.0
16/05:30am 9.8 5.2 5.6 75 1.9 W 19 28 10 15 1015.3 1015.3 0.0
16/05:00am 9.2 4.2 4.8 74 2.0 W 20 24 11 13 1015.0 1015.0 0.0
16/04:30am 8.9 4.8 4.5 74 1.9 WNW 15 19 8 10 1014.9 1014.9 0.0
16/04:00am 9.4 4.6 4.8 73 2.1 W 19 22 10 12 1014.8 1014.8 0.0
16/03:30am 9.4 4.6 4.8 73 2.1 W 19 22 10 12 1014.7 1014.7 0.0
16/03:00am 9.6 4.6 4.8 72 2.1 W 20 26 11 14 1014.7 1014.7 0.0
16/02:30am 9.5 4.7 4.5 71 2.2 W 19 24 10 13 1014.8 1014.8 0.0
16/02:00am 9.4 4.6 4.6 72 2.1 WNW 19 24 10 13 1014.9 1014.9 0.0
16/01:30am 9.4 5.5 5.2 75 1.9 WNW 15 20 8 11 1015.0 1015.0 0.0
16/01:00am 9.9 5.6 5.3 73 2.1 WNW 17 20 9 11 1014.8 1014.8 0.0
16/12:30am 10.2 5.4 5.4 72 2.2 W 20 26 11 14 1014.8 1014.8 0.0
16/12:00am 10.2 4.5 5.0 70 2.3 W 24 32 13 17 1014.7 1014.7 0.0
 
Date/Time
CST
Temp
°C
App
Temp
°C
Dew
Point
°C
Rel
Hum
%
Delta-T
°C
Wind Press
QNH
hPa
Press
MSL
hPa
Rain since
9am
mm
Dir  Spd
km/h
Gust
km/h
Spd
kts
Gust
kts
15/11:30pm 10.0 5.0 4.8 70 2.3 W 20 26 11 14 1014.7 1014.7 0.0
15/11:00pm 10.2 5.5 5.0 70 2.3 W 19 26 10 14 1014.8 1014.8 0.0
15/10:30pm 10.4 5.7 5.2 70 2.4 W 19 26 10 14 1014.8 1014.8 0.0
15/10:00pm 10.3 5.7 5.5 72 2.2 W 19 24 10 13 1014.8 1014.8 0.0
15/09:30pm 10.5 5.9 5.5 71 2.3 W 19 22 10 12 1014.6 1014.6 0.0
15/09:00pm 10.7 6.1 5.5 70 2.4 WNW 19 20 10 11 1014.4 1014.4 0.0
15/08:30pm 10.8 5.9 5.3 69 2.5 WNW 20 26 11 14 1014.2 1014.2 0.0
15/08:00pm 11.0 5.8 5.5 69 2.5 W 22 28 12 15 1014.0 1014.0 0.0
15/07:30pm 11.4 6.7 5.9 69 2.6 W 20 30 11 16 1013.7 1013.7 0.0
15/07:00pm 11.9 6.5 6.2 68 2.7 W 24 37 13 20 1013.3 1013.3 0.0
15/06:30pm 11.9 6.8 6.0 67 2.8 W 22 30 12 16 1012.9 1012.9 0.0
15/06:00pm 11.7 7.7 4.9 63 3.1 WNW 15 20 8 11 1012.6 1012.6 0.0
15/05:30pm 12.7 6.5 4.4 57 3.8 W 26 39 14 21 1012.2 1012.2 0.0
15/05:00pm 13.2 5.8 3.8 53 4.2 WSW 32 43 17 23 1011.9 1011.9 0.0
15/04:30pm 13.8 7.7 6.4 61 3.6 WSW 28 37 15 20 1011.7 1011.7 0.0
15/04:00pm 15.4 8.6 6.9 57 4.2 W 32 46 17 25 1011.6 1011.6 0.0
15/03:30pm 14.8 8.2 7.8 63 3.5 WSW 32 43 17 23 1011.1 1011.1 0.0
15/03:16pm 15.5 8.2 5.4 51 4.8 W 33 52 18 28 1010.8 1010.8 0.0
15/03:00pm 15.8 8.7 5.4 50 5.0 W 32 46 17 25 1010.9 1010.9 0.0
15/02:30pm 15.5 6.5 4.8 49 5.0 W 41 56 22 30 1010.8 1010.8 0.0
15/02:14pm 15.6 7.4 4.6 48 5.1 W 37 56 20 30 1010.6 1010.6 0.0
15/02:00pm 15.7 7.5 6.4 54 4.5 W 39 56 21 30 1010.7 1010.7 0.0
15/01:37pm 15.0 7.2 4.7 50 4.8 W 35 57 19 31 1010.7 1010.7 0.0
15/01:30pm 14.5 6.7 6.8 60 3.7 W 37 50 20 27 1010.9 1010.9 0.0
15/01:00pm 15.7 6.5 5.6 51 4.8 W 43 63 23 34 1010.6 1010.6 0.0
15/12:32pm 16.2 7.6 4.9 47 5.3 W 39 57 21 31 1010.7 1010.7 0.0
15/12:30pm 16.1 7.1 4.8 47 5.3 W 41 57 22 31 1010.7 1010.7 0.0
15/12:00pm 16.2 8.0 4.6 46 5.5 W 37 56 20 30 1010.8 1010.8 0.0
15/11:34am 16.2 8.7 3.6 43 5.8 W 32 52 17 28 1010.9 1010.9 0.0
15/11:30am 16.3 9.0 4.7 46 5.5 W 32 44 17 24 1011.1 1011.1 0.0
15/11:00am 15.7 6.8 5.0 49 5.1 W 41 59 22 32 1011.5 1011.5 0.0
15/10:36am 15.4 8.6 5.3 51 4.8 WNW 30 50 16 27 1011.4 1011.4 0.0
15/10:30am 15.3 9.1 6.3 55 4.4 W 28 43 15 23 1011.5 1011.5 0.0
15/10:00am 15.2 7.6 6.0 54 4.4 W 35 46 19 25 1011.3 1011.3 0.0
15/09:30am 15.4 7.1 5.9 53 4.6 W 39 56 21 30 1011.1 1011.1 0.0
15/09:17am 15.0 8.0 5.8 54 4.4 W 32 56 17 30 1010.9 1010.9 0.0
15/09:00am 15.0 8.3 7.5 61 3.7 W 32 44 17 24 1010.9 1010.9 0.0
15/08:50am 14.8 8.9 7.6 62 3.6 W 28 46 15 25 1011.0 1011.0 0.0
15/08:30am 14.2 9.9 9.2 72 2.6 WNW 22 32 12 17 1010.7 1010.7 0.0
15/08:00am 13.5 8.5 9.6 77 2.0 WNW 26 37 14 20 1010.7 1010.7 0.0
15/07:30am 13.8 8.8 8.0 68 2.9 WNW 24 37 13 20 1010.4 1010.4 0.0
15/07:00am 13.4 8.5 8.5 72 2.4 WNW 24 33 13 18 1010.2 1010.2 0.0
15/06:30am 13.5 7.9 8.8 73 2.4 WNW 28 35 15 19 1010.0 1010.0 0.0
15/06:00am 14.0 8.0 8.6 70 2.7 WNW 30 44 16 24 1009.8 1009.8 0.0
15/05:30am 14.3 7.8 8.3 67 3.0 WNW 32 46 17 25 1009.7 1009.7 0.0
15/05:00am 14.8 7.7 8.1 64 3.4 WNW 35 48 19 26 1009.8 1009.8 0.0
15/04:38am 15.1 8.3 7.9 62 3.6 WNW 33 52 18 28 1009.4 1009.4 0.0
15/04:30am 15.1 8.5 7.6 61 3.7 NW 32 46 17 25 1009.4 1009.4 0.0
15/04:00am 15.1 8.8 7.6 61 3.7 WNW 30 43 16 23 1009.6 1009.6 0.0
15/03:50am 15.2 9.3 7.7 61 3.7 WNW 28 46 15 25 1009.5 1009.5 0.0
15/03:30am 15.2 8.5 7.3 59 3.9 NW 32 44 17 24 1009.7 1009.7 0.0
15/03:00am 15.3 7.7 5.8 53 4.6 NW 35 48 19 26 1009.7 1009.7 0.0
15/02:30am 15.7 8.1 5.6 51 4.8 WNW 35 50 19 27 1009.8 1009.8 0.0
15/02:03am 15.9 7.7 4.9 48 5.2 WNW 37 56 20 30 1009.7 1009.7 0.0
15/02:00am 16.1 7.5 4.8 47 5.3 WNW 39 56 21 30 1009.7 1009.7 0.0
15/01:40am 16.2 7.7 3.3 42 5.9 WNW 37 56 20 30 1009.8 1009.8 0.0
15/01:30am 16.4 7.5 3.1 41 6.1 WNW 39 56 21 30 1010.0 1010.0 0.0
15/01:00am 16.8 6.9 1.7 36 6.7 WNW 43 63 23 34 1009.9 1009.9 0.0
15/12:30am 17.4 6.8 1.0 33 7.2 NW 46 69 25 37 1009.5 1009.5 0.0
15/12:00am 17.8 6.3 0.0 30 7.7 NW 50 69 27 37 1009.4 1009.4 0.0
 
Date/Time
CST
Temp
°C
App
Temp
°C
Dew
Point
°C
Rel
Hum
%
Delta-T
°C
Wind Press
QNH
hPa
Press
MSL
hPa
Rain since
9am
mm
Dir  Spd
km/h
Gust
km/h
Spd
kts
Gust
kts
14/11:30pm 17.7 7.0 -0.1 30 7.7 NW 46 69 25 37 1009.2 1009.2 0.0
14/11:00pm 17.7 7.3 -0.5 29 7.8 NNW 44 63 24 34 1009.0 1009.0 0.0
14/10:30pm 17.7 7.5 -0.1 30 7.7 NNW 43 63 23 34 1009.3 1009.3 0.0
14/10:00pm 17.3 7.1 0.0 31 7.5 NNW 43 61 23 33 1009.7 1009.7 0.0
14/09:30pm 17.1 6.9 0.7 33 7.2 NNW 44 63 24 34 1010.2 1010.2 0.0
14/09:14pm 17.0 8.5 0.6 33 7.1 NNW 35 56 19 30 1010.5 1010.5 0.0
14/09:00pm 16.6 8.1 1.1 35 6.8 NNW 35 48 19 26 1010.8 1010.8 0.0
14/08:30pm 16.3 8.0 2.3 39 6.3 NNW 35 54 19 29 1011.2 1011.2 0.0
14/08:00pm 16.2 8.0 2.9 41 6.0 NNW 35 54 19 29 1011.2 1011.2 0.0
14/07:32pm 16.3 7.8 3.4 42 5.9 NNW 37 56 20 30 1010.9 1010.9 0.0
14/07:30pm 16.3 7.5 3.4 42 5.9 NNW 39 56 21 30 1010.9 1010.9 0.0
14/07:05pm 16.3 8.6 3.4 42 5.9 NNW 33 54 18 29 1011.4 1011.4 0.0
14/07:00pm 16.4 8.7 3.5 42 5.9 NNW 33 46 18 25 1011.4 1011.4 0.0
14/06:33pm 16.6 8.5 3.0 40 6.2 NNW 35 56 19 30 1011.6 1011.6 0.0
14/06:30pm 16.4 8.3 3.1 41 6.1 NNW 35 52 19 28 1011.7 1011.7 0.0
14/06:00pm 16.7 7.8 3.1 40 6.2 NNW 39 59 21 32 1011.7 1011.7 0.0
14/05:30pm 16.8 7.9 3.1 40 6.3 NNW 39 59 21 32 1012.0 1012.0 0.0
14/05:00pm 17.0 8.2 3.7 41 6.2 NNW 39 59 21 32 1012.6 1012.6 0.0
14/04:30pm 17.2 7.6 3.5 40 6.3 NNW 43 61 23 33 1012.8 1012.8 0.0
14/04:00pm 17.3 7.5 3.6 40 6.4 NW 44 63 24 34 1013.1 1013.1 0.0
14/03:30pm 17.3 7.4 2.5 37 6.7 NNW 44 69 24 37 1013.5 1013.5 0.0
14/03:00pm 17.5 7.5 4.1 41 6.3 NNW 46 69 25 37 1013.7 1013.7 0.0
14/02:30pm 17.2 6.2 3.1 39 6.5 NNW 50 72 27 39 1013.9 1013.9 0.0
14/02:00pm 17.0 6.8 5.0 45 5.7 NNW 48 76 26 41 1014.7 1014.7 0.0
14/01:30pm 16.6 5.8 4.0 43 5.9 NNW 50 69 27 37 1015.1 1015.1 0.0
14/01:00pm 16.8 8.2 4.5 44 5.8 NW 39 70 21 38 1016.5 1016.5 0.0
14/12:57pm 16.7 7.6 4.1 43 5.9 NW 41 70 22 38 1016.5 1016.5 0.0
14/12:31pm 16.8 9.3 4.2 43 5.9 NW 33 52 18 28 1018.4 1018.4 0.0
14/12:30pm 16.8 8.8 3.8 42 6.0 NW 35 52 19 28 1018.4 1018.4 0.0
14/12:03pm 16.7 9.1 3.7 42 6.0 NW 33 52 18 28 1018.9 1018.9 0.0
14/12:00pm 16.6 8.9 3.3 41 6.1 NW 33 50 18 27 1019.0 1019.0 0.0
14/11:30am 16.3 9.9 5.0 47 5.3 NW 28 48 15 26 1019.6 1019.6 0.0
14/11:24am 16.3 9.0 4.7 46 5.5 NW 32 50 17 27 1019.8 1019.8 0.0
14/11:00am 16.1 10.0 4.8 47 5.3 NW 26 35 14 19 1020.4 1020.4 0.0
14/10:30am 15.7 10.5 5.3 50 4.9 NW 22 28 12 15 1020.8 1020.8 0.0
14/10:00am 14.9 9.9 4.6 50 4.8 NW 20 33 11 18 1021.3 1021.3 0.0
14/09:42am 14.7 8.3 5.0 52 4.5 NNW 28 46 15 25 1021.5 1021.5 0.0
14/09:30am 14.6 8.5 4.9 52 4.5 NNW 26 41 14 22 1021.6 1021.6 0.0
14/09:05am 13.9 6.6 5.3 56 4.0 NNW 33 52 18 28 1021.3 1021.3 0.0
14/09:00am 13.7 5.6 5.1 56 4.0 NNW 37 52 20 28 1021.2 1021.2 0.0
14/08:33am 12.7 6.2 4.9 59 3.6 NNW 28 46 15 25 1020.8 1020.8 0.0
14/08:30am 12.6 6.9 5.1 60 3.5 NNW 24 43 13 23 1020.9 1020.9 0.0
14/08:00am 11.5 5.9 5.4 66 2.8 N 24 32 13 17 1021.6 1021.6 0.0
14/07:30am 11.2 4.8 5.3 67 2.7 NNW 28 37 15 20 1021.8 1021.8 0.0
14/07:00am 10.5 6.6 5.5 71 2.3 N 15 26 8 14 1022.3 1022.3 0.0
14/06:30am 9.5 5.4 6.0 79 1.6 N 17 22 9 12 1022.7 1022.7 0.0
14/06:00am 9.3 5.6 6.4 82 1.3 N 15 24 8 13 1023.0 1023.0 0.0
14/05:30am 7.4 3.5 5.5 88 0.8 NNE 15 19 8 10 1023.4 1023.4 0.0
14/05:00am 6.2 2.4 4.0 86 0.9 NE 13 13 7 7 1023.7 1023.7 0.0
14/04:30am 6.0 2.2 3.8 86 0.9 ENE 13 15 7 8 1023.9 1023.9 0.0
14/04:00am 7.2 4.9 4.9 85 1.0 NNE 6 9 3 5 1024.0 1024.0 0.0
14/03:30am 6.8 3.1 4.3 84 1.1 NE 13 15 7 8 1024.0 1024.0 0.0
14/03:00am 7.9 4.8 5.4 84 1.1 NNE 11 15 6 8 1024.3 1024.3 0.0
14/02:30am 8.2 4.8 5.7 84 1.1 N 13 15 7 8 1024.7 1024.7 0.0
14/02:00am 8.3 4.8 5.4 82 1.3 NNE 13 15 7 8 1025.3 1025.3 0.0
14/01:30am 8.8 5.1 6.3 84 1.1 N 15 19 8 10 1025.9 1025.9 0.0
14/01:00am 8.9 5.6 6.2 83 1.2 N 13 17 7 9 1026.3 1026.3 0.0
14/12:30am 9.4 5.7 6.5 82 1.3 N 15 17 8 9 1026.4 1026.4 0.0
14/12:00am 9.5 6.6 6.4 81 1.4 N 11 15 6 8 1026.6 1026.6 0.0
 
Date/Time
CST
Temp
°C
App
Temp
°C
Dew
Point
°C
Rel
Hum
%
Delta-T
°C
Wind Press
QNH
hPa
Press
MSL
hPa
Rain since
9am
mm
Dir  Spd
km/h
Gust
km/h
Spd
kts
Gust
kts
13/11:30pm 9.9 6.8 7.2 83 1.3 N 13 17 7 9 1026.9 1026.9 0.0
13/11:00pm 10.7 8.1 7.6 81 1.5 NNW 11 15 6 8 1027.1 1027.1 0.0
13/10:30pm 10.8 9.4 7.3 79 1.7 N 4 11 2 6 1027.4 1027.4 0.0
13/10:00pm 11.7 9.6 8.4 80 1.6 NW 9 13 5 7 1027.8 1027.8 0.0
13/09:30pm 11.1 8.5 7.8 80 1.6 NNW 11 13 6 7 1028.0 1028.0 0.0
13/09:00pm 10.3 7.9 7.2 81 1.5 WNW 9 13 5 7 1028.0 1028.0 0.0
13/08:30pm 10.1 7.9 6.4 78 1.7 NW 7 9 4 5 1028.2 1028.2 0.0
13/08:00pm 10.5 8.0 6.6 77 1.8 NW 9 13 5 7 1028.0 1028.0 0.0
13/07:30pm 10.8 7.6 6.9 77 1.8 NNW 13 15 7 8 1027.7 1027.7 0.0
13/07:00pm 11.2 8.1 7.1 76 2.0 NNW 13 15 7 8 1027.6 1027.6 0.0
13/06:30pm 11.9 8.8 7.4 74 2.2 NW 13 17 7 9 1027.4 1027.4 0.0
13/06:00pm 12.5 9.0 7.4 71 2.5 NW 15 19 8 10 1027.2 1027.2 0.0
13/05:30pm 13.5 10.0 7.3 66 3.0 WNW 15 20 8 11 1027.2 1027.2 0.0
13/05:00pm 14.5 10.6 7.1 61 3.6 WNW 17 24 9 13 1027.1 1027.1 0.0
13/04:30pm 15.3 10.8 6.8 57 4.1 WNW 20 28 11 15 1027.2 1027.2 0.0
13/04:00pm 15.3 10.9 7.3 59 4.0 WNW 20 28 11 15 1027.4 1027.4 0.0
13/03:30pm 15.3 10.4 7.1 58 4.0 WNW 22 28 12 15 1027.4 1027.4 0.0
13/03:00pm 15.9 11.0 7.1 56 4.3 WNW 22 30 12 16 1027.4 1027.4 0.0
13/02:30pm 15.1 10.7 7.2 59 3.9 W 20 30 11 16 1027.2 1027.2 0.0
13/02:00pm 15.8 10.7 7.8 59 4.0 W 24 32 13 17 1027.3 1027.3 0.0
13/01:30pm 14.8 9.9 8.5 66 3.2 WNW 24 33 13 18 1027.5 1027.5 0.0
13/01:00pm 15.0 10.3 7.8 62 3.6 W 22 32 12 17 1027.8 1027.8 0.0
13/12:30pm 14.7 10.3 7.3 61 3.6 W 20 28 11 15 1028.3 1028.3 0.0
13/12:00pm 14.6 11.1 8.8 68 2.9 WSW 17 22 9 12 1028.9 1028.9 0.0
13/11:30am 14.5 10.3 8.2 66 3.1 WSW 20 26 11 14 1029.2 1029.2 0.0
13/11:00am 14.6 10.4 7.6 63 3.5 WSW 19 28 10 15 1029.5 1029.5 0.0
13/10:30am 14.5 10.7 7.5 63 3.4 WSW 17 24 9 13 1029.5 1029.5 0.0
13/10:00am 13.9 8.6 7.0 63 3.4 W 24 32 13 17 1029.4 1029.4 0.0
13/09:30am 13.7 8.7 6.6 62 3.4 W 22 32 12 17 1029.4 1029.4 0.0
13/09:00am 12.9 8.3 6.7 66 2.9 W 20 28 11 15 1029.1 1029.1 1.2
13/08:30am 12.3 7.8 6.8 69 2.6 WSW 20 28 11 15 1029.0 1029.0 1.2
13/08:00am 12.2 7.5 6.0 66 2.9 W 20 26 11 14 1028.6 1028.6 1.2
13/07:30am 12.0 6.5 5.9 66 2.8 W 24 32 13 17 1028.2 1028.2 1.2
13/07:00am 11.9 6.8 6.2 68 2.7 W 22 28 12 15 1028.2 1028.2 1.2
13/06:30am 11.9 6.4 6.0 67 2.7 W 24 33 13 18 1027.8 1027.8 1.2

Latest Capital City Observations: Canberra | Sydney | Melbourne | Brisbane | Adelaide | Perth | Hobart | Darwin

Other Formats:

Comma delimited format used in spreadsheet applications
http://www.bom.gov.au/fwo/IDS60901/IDS60901.94677.axf

JavaScript Object Notation format (JSON) in row-major order
http://www.bom.gov.au/fwo/IDS60901/IDS60901.94677.json